sensor_id;sensor_type;location;lat;lon;timestamp;pressure;altitude;pressure_sealevel;temperature;humidity
7754;BME280;3921;42.266;23.122;2022-07-23T00:02:05;95553.41;;;23.98;40.99
7754;BME280;3921;42.266;23.122;2022-07-23T00:04:33;95567.34;;;24.08;41.02
7754;BME280;3921;42.266;23.122;2022-07-23T00:07:00;95534.47;;;23.84;41.02
7754;BME280;3921;42.266;23.122;2022-07-23T00:09:28;95662.56;;;24.49;41.06
7754;BME280;3921;42.266;23.122;2022-07-23T00:11:57;95624.44;;;24.27;40.88
7754;BME280;3921;42.266;23.122;2022-07-23T00:14:24;95527.13;;;23.48;41.27
7754;BME280;3921;42.266;23.122;2022-07-23T00:16:52;95738.16;;;24.89;41.20
7754;BME280;3921;42.266;23.122;2022-07-23T00:19:20;95548.00;;;23.56;41.00
7754;BME280;3921;42.266;23.122;2022-07-23T00:21:47;95490.03;;;23.24;41.25
7754;BME280;3921;42.266;23.122;2022-07-23T00:24:14;95927.34;;;25.97;41.04
7754;BME280;3921;42.266;23.122;2022-07-23T00:26:41;95641.19;;;24.19;41.38
7754;BME280;3921;42.266;23.122;2022-07-23T00:29:09;95718.63;;;24.57;41.22
7754;BME280;3921;42.266;23.122;2022-07-23T00:31:36;95786.91;;;24.91;41.40
7754;BME280;3921;42.266;23.122;2022-07-23T00:34:03;95738.38;;;24.56;41.51
7754;BME280;3921;42.266;23.122;2022-07-23T00:36:31;95663.25;;;24.07;41.25
7754;BME280;3921;42.266;23.122;2022-07-23T00:39:01;95439.78;;;22.58;41.31
7754;BME280;3921;42.266;23.122;2022-07-23T00:41:37;95924.72;;;25.68;41.84
7754;BME280;3921;42.266;23.122;2022-07-23T00:44:15;95500.88;;;22.97;42.09
7754;BME280;3921;42.266;23.122;2022-07-23T00:46:49;95454.00;;;22.64;41.88
7754;BME280;3921;42.266;23.122;2022-07-23T00:49:21;95491.34;;;22.68;41.74
7754;BME280;3921;42.266;23.122;2022-07-23T00:52:00;95465.91;;;22.65;42.00
7754;BME280;3921;42.266;23.122;2022-07-23T00:54:32;95927.91;;;25.43;41.94
7754;BME280;3921;42.266;23.122;2022-07-23T00:57:00;95763.81;;;24.45;41.89
7754;BME280;3921;42.266;23.122;2022-07-23T00:59:30;95890.00;;;25.16;42.10
7754;BME280;3921;42.266;23.122;2022-07-23T01:01:58;95499.94;;;22.67;42.08
7754;BME280;3921;42.266;23.122;2022-07-23T01:04:28;95431.09;;;22.13;42.57
7754;BME280;3921;42.266;23.122;2022-07-23T01:06:58;95467.56;;;22.50;42.69
7754;BME280;3921;42.266;23.122;2022-07-23T01:09:26;95440.16;;;22.19;42.66
7754;BME280;3921;42.266;23.122;2022-07-23T01:11:54;95491.94;;;22.57;42.42
7754;BME280;3921;42.266;23.122;2022-07-23T01:14:25;95496.97;;;22.43;42.52
7754;BME280;3921;42.266;23.122;2022-07-23T01:16:52;95500.94;;;22.48;42.65
7754;BME280;3921;42.266;23.122;2022-07-23T01:19:21;95465.72;;;22.36;42.53
7754;BME280;3921;42.266;23.122;2022-07-23T01:21:51;95932.81;;;25.18;42.89
7754;BME280;3921;42.266;23.122;2022-07-23T01:24:24;95526.28;;;22.53;42.79
7754;BME280;3921;42.266;23.122;2022-07-23T01:26:51;95653.25;;;23.39;42.73
7754;BME280;3921;42.266;23.122;2022-07-23T01:29:19;95594.56;;;22.86;42.97
7754;BME280;3921;42.266;23.122;2022-07-23T01:31:47;95406.38;;;21.79;42.71
7754;BME280;3921;42.266;23.122;2022-07-23T01:34:15;95479.66;;;22.15;43.16
7754;BME280;3921;42.266;23.122;2022-07-23T01:36:43;95681.78;;;23.33;42.79
7754;BME280;3921;42.266;23.122;2022-07-23T01:39:11;95770.22;;;23.91;42.99
7754;BME280;3921;42.266;23.122;2022-07-23T01:41:42;95945.25;;;24.94;43.27
7754;BME280;3921;42.266;23.122;2022-07-23T01:44:10;95492.28;;;22.00;43.52
7754;BME280;3921;42.266;23.122;2022-07-23T01:46:38;95929.53;;;24.84;43.23
7754;BME280;3921;42.266;23.122;2022-07-23T01:49:06;95929.69;;;24.81;43.23
7754;BME280;3921;42.266;23.122;2022-07-23T01:51:33;95478.59;;;21.84;43.69
7754;BME280;3921;42.266;23.122;2022-07-23T01:54:01;95926.88;;;24.70;43.90
7754;BME280;3921;42.266;23.122;2022-07-23T01:56:29;95494.41;;;21.75;43.67
7754;BME280;3921;42.266;23.122;2022-07-23T01:58:59;95486.53;;;21.80;43.80
7754;BME280;3921;42.266;23.122;2022-07-23T02:01:26;95764.09;;;23.44;43.97
7754;BME280;3921;42.266;23.122;2022-07-23T02:03:53;95789.97;;;23.57;44.15
7754;BME280;3921;42.266;23.122;2022-07-23T02:06:23;95461.53;;;21.50;44.07
7754;BME280;3921;42.266;23.122;2022-07-23T02:08:52;95482.06;;;21.48;44.26
7754;BME280;3921;42.266;23.122;2022-07-23T02:11:20;95405.16;;;21.18;44.18
7754;BME280;3921;42.266;23.122;2022-07-23T02:13:47;95442.56;;;21.19;44.37
7754;BME280;3921;42.266;23.122;2022-07-23T02:16:17;95477.66;;;21.35;44.43
7754;BME280;3921;42.266;23.122;2022-07-23T02:18:44;95766.13;;;23.22;44.27
7754;BME280;3921;42.266;23.122;2022-07-23T02:21:12;95457.25;;;21.33;44.41
7754;BME280;3921;42.266;23.122;2022-07-23T02:23:39;95463.28;;;21.32;44.35
7754;BME280;3921;42.266;23.122;2022-07-23T02:26:06;95945.41;;;24.27;44.63
7754;BME280;3921;42.266;23.122;2022-07-23T02:28:33;95603.94;;;22.01;44.65
7754;BME280;3921;42.266;23.122;2022-07-23T02:31:00;95841.31;;;23.55;44.57
7754;BME280;3921;42.266;23.122;2022-07-23T02:33:29;95672.47;;;22.48;44.46
7754;BME280;3921;42.266;23.122;2022-07-23T02:35:56;95526.00;;;21.39;44.54
7754;BME280;3921;42.266;23.122;2022-07-23T02:38:23;95907.97;;;23.90;44.40
7754;BME280;3921;42.266;23.122;2022-07-23T02:40:51;95642.59;;;21.95;44.52
7754;BME280;3921;42.266;23.122;2022-07-23T02:43:19;95509.00;;;21.19;44.79
7754;BME280;3921;42.266;23.122;2022-07-23T02:45:46;95502.03;;;21.23;44.79
7754;BME280;3921;42.266;23.122;2022-07-23T02:48:14;95493.03;;;20.97;44.58
7754;BME280;3921;42.266;23.122;2022-07-23T02:50:42;95601.63;;;21.61;44.62
7754;BME280;3921;42.266;23.122;2022-07-23T02:53:10;95450.69;;;20.55;44.60
7754;BME280;3921;42.266;23.122;2022-07-23T02:59:23;95610.88;;;21.46;45.07
7754;BME280;3921;42.266;23.122;2022-07-23T03:01:52;95511.69;;;20.80;44.63
7754;BME280;3921;42.266;23.122;2022-07-23T03:04:26;95543.19;;;20.98;45.02
7754;BME280;3921;42.266;23.122;2022-07-23T03:07:13;95740.66;;;22.15;44.79
7754;BME280;3921;42.266;23.122;2022-07-23T03:09:44;95531.53;;;20.92;45.06
7754;BME280;3921;42.266;23.122;2022-07-23T03:12:15;95976.53;;;23.71;44.95
7754;BME280;3921;42.266;23.122;2022-07-23T03:14:46;95879.38;;;22.95;44.98
7754;BME280;3921;42.266;23.122;2022-07-23T03:17:17;95830.47;;;22.64;45.09
7754;BME280;3921;42.266;23.122;2022-07-23T03:19:46;95677.25;;;21.66;45.10
7754;BME280;3921;42.266;23.122;2022-07-23T03:22:18;95561.84;;;20.81;45.10
7754;BME280;3921;42.266;23.122;2022-07-23T03:24:46;95539.91;;;20.77;45.04
7754;BME280;3921;42.266;23.122;2022-07-23T03:27:28;95560.00;;;20.66;45.25
7754;BME280;3921;42.266;23.122;2022-07-23T03:29:58;95497.63;;;20.32;45.19
7754;BME280;3921;42.266;23.122;2022-07-23T03:32:26;95521.22;;;20.37;45.22
7754;BME280;3921;42.266;23.122;2022-07-23T03:34:54;95546.09;;;20.53;45.26
7754;BME280;3921;42.266;23.122;2022-07-23T03:37:23;95560.13;;;20.63;45.27
7754;BME280;3921;42.266;23.122;2022-07-23T03:39:50;95498.59;;;20.30;45.14
7754;BME280;3921;42.266;23.122;2022-07-23T03:42:17;95579.31;;;20.72;45.29
7754;BME280;3921;42.266;23.122;2022-07-23T03:44:45;95718.72;;;21.54;45.41
7754;BME280;3921;42.266;23.122;2022-07-23T03:47:12;95581.81;;;20.53;45.29
7754;BME280;3921;42.266;23.122;2022-07-23T03:49:42;95898.13;;;22.60;45.33
7754;BME280;3921;42.266;23.122;2022-07-23T03:52:13;95593.50;;;20.58;45.55
7754;BME280;3921;42.266;23.122;2022-07-23T03:54:42;95590.78;;;20.42;45.59
7754;BME280;3921;42.266;23.122;2022-07-23T03:57:13;96007.63;;;23.11;45.43
7754;BME280;3921;42.266;23.122;2022-07-23T03:59:57;95765.34;;;21.40;45.84
7754;BME280;3921;42.266;23.122;2022-07-23T04:02:24;95558.78;;;20.15;45.86
7754;BME280;3921;42.266;23.122;2022-07-23T04:04:52;95566.16;;;20.21;46.24
7754;BME280;3921;42.266;23.122;2022-07-23T04:07:20;95616.66;;;20.33;46.21
7754;BME280;3921;42.266;23.122;2022-07-23T04:09:54;95560.50;;;20.14;46.08
7754;BME280;3921;42.266;23.122;2022-07-23T04:15:02;95509.16;;;19.81;46.21
7754;BME280;3921;42.266;23.122;2022-07-23T04:17:30;95615.72;;;20.36;46.21
7754;BME280;3921;42.266;23.122;2022-07-23T04:25:07;95791.13;;;21.36;46.42
7754;BME280;3921;42.266;23.122;2022-07-23T04:27:39;95581.19;;;20.07;46.34
7754;BME280;3921;42.266;23.122;2022-07-23T04:30:10;96032.22;;;22.96;46.47
7754;BME280;3921;42.266;23.122;2022-07-23T04:32:38;95605.53;;;20.36;47.39
7754;BME280;3921;42.266;23.122;2022-07-23T04:35:05;95803.78;;;21.58;46.96
7754;BME280;3921;42.266;23.122;2022-07-23T04:37:34;96028.88;;;23.13;46.93
7754;BME280;3921;42.266;23.122;2022-07-23T04:40:03;95950.31;;;22.57;46.49
7754;BME280;3921;42.266;23.122;2022-07-23T04:42:31;95760.38;;;21.37;46.95
7754;BME280;3921;42.266;23.122;2022-07-23T04:44:58;95891.78;;;22.31;47.18
7754;BME280;3921;42.266;23.122;2022-07-23T04:47:26;95735.09;;;21.31;46.89
7754;BME280;3921;42.266;23.122;2022-07-23T04:49:53;96044.69;;;23.23;47.14
7754;BME280;3921;42.266;23.122;2022-07-23T04:52:20;95791.63;;;21.63;46.92
7754;BME280;3921;42.266;23.122;2022-07-23T04:54:47;95778.69;;;21.66;47.06
7754;BME280;3921;42.266;23.122;2022-07-23T04:57:15;95873.47;;;22.21;47.05
7754;BME280;3921;42.266;23.122;2022-07-23T04:59:43;95790.09;;;21.59;46.90
7754;BME280;3921;42.266;23.122;2022-07-23T05:02:10;95767.78;;;21.62;46.89
7754;BME280;3921;42.266;23.122;2022-07-23T05:04:39;95635.41;;;20.73;46.66
7754;BME280;3921;42.266;23.122;2022-07-23T05:07:06;95860.31;;;22.29;46.90
7754;BME280;3921;42.266;23.122;2022-07-23T05:09:36;96015.56;;;23.24;46.76
7754;BME280;3921;42.266;23.122;2022-07-23T05:12:03;95864.41;;;22.33;46.64
7754;BME280;3921;42.266;23.122;2022-07-23T05:14:31;96020.22;;;23.16;46.56
7754;BME280;3921;42.266;23.122;2022-07-23T05:17:01;95821.94;;;22.10;46.50
7754;BME280;3921;42.266;23.122;2022-07-23T05:19:28;95690.41;;;21.19;46.85
7754;BME280;3921;42.266;23.122;2022-07-23T05:21:55;96075.19;;;23.46;46.87
7754;BME280;3921;42.266;23.122;2022-07-23T05:24:23;95841.69;;;22.25;46.64
7754;BME280;3921;42.266;23.122;2022-07-23T05:26:51;95896.06;;;22.49;46.65
7754;BME280;3921;42.266;23.122;2022-07-23T05:29:18;95793.13;;;22.05;46.91
7754;BME280;3921;42.266;23.122;2022-07-23T05:31:45;95770.81;;;21.70;47.15
7754;BME280;3921;42.266;23.122;2022-07-23T05:34:55;95586.19;;;20.69;47.15
7754;BME280;3921;42.266;23.122;2022-07-23T05:37:25;95686.44;;;21.33;47.21
7754;BME280;3921;42.266;23.122;2022-07-23T05:39:52;95552.34;;;20.66;47.42
7754;BME280;3921;42.266;23.122;2022-07-23T05:42:20;95670.81;;;21.39;47.50
7754;BME280;3921;42.266;23.122;2022-07-23T05:44:47;95645.50;;;21.34;47.66
7754;BME280;3921;42.266;23.122;2022-07-23T05:47:14;95640.41;;;21.34;47.75
7754;BME280;3921;42.266;23.122;2022-07-23T05:49:46;95661.09;;;21.47;47.88
7754;BME280;3921;42.266;23.122;2022-07-23T05:52:14;95789.66;;;22.24;48.12
7754;BME280;3921;42.266;23.122;2022-07-23T05:54:42;95643.69;;;21.36;47.96
7754;BME280;3921;42.266;23.122;2022-07-23T05:57:12;96066.44;;;24.04;48.17
7754;BME280;3921;42.266;23.122;2022-07-23T05:59:48;95603.63;;;21.37;48.04
7754;BME280;3921;42.266;23.122;2022-07-23T06:02:15;95556.72;;;21.19;47.83
7754;BME280;3921;42.266;23.122;2022-07-23T06:04:43;95704.09;;;21.94;47.68
7754;BME280;3921;42.266;23.122;2022-07-23T06:07:11;95625.88;;;21.71;47.73
7754;BME280;3921;42.266;23.122;2022-07-23T06:09:38;95783.34;;;22.68;47.24
7754;BME280;3921;42.266;23.122;2022-07-23T06:12:06;95842.28;;;23.02;47.19
7754;BME280;3921;42.266;23.122;2022-07-23T06:14:34;95604.41;;;21.56;46.47
7754;BME280;3921;42.266;23.122;2022-07-23T06:17:01;95769.84;;;22.64;46.19
7754;BME280;3921;42.266;23.122;2022-07-23T06:19:28;95874.97;;;23.49;45.55
7754;BME280;3921;42.266;23.122;2022-07-23T06:21:56;95633.97;;;21.98;45.71
7754;BME280;3921;42.266;23.122;2022-07-23T06:24:23;95637.34;;;21.98;45.40
7754;BME280;3921;42.266;23.122;2022-07-23T06:26:50;96017.69;;;24.53;45.71
7754;BME280;3921;42.266;23.122;2022-07-23T06:29:17;95625.19;;;22.21;45.64
7754;BME280;3921;42.266;23.122;2022-07-23T06:31:45;95607.69;;;21.94;46.06
7754;BME280;3921;42.266;23.122;2022-07-23T06:34:12;95661.31;;;22.49;46.15
7754;BME280;3921;42.266;23.122;2022-07-23T06:36:39;95789.88;;;23.25;46.16
7754;BME280;3921;42.266;23.122;2022-07-23T06:39:08;95683.16;;;22.57;46.02
7754;BME280;3921;42.266;23.122;2022-07-23T06:41:35;95965.00;;;24.46;45.62
7754;BME280;3921;42.266;23.122;2022-07-23T06:44:02;95872.03;;;23.74;45.23
7754;BME280;3921;42.266;23.122;2022-07-23T06:46:31;95860.88;;;23.91;44.23
7754;BME280;3921;42.266;23.122;2022-07-23T06:48:58;95855.41;;;23.81;44.25
7754;BME280;3921;42.266;23.122;2022-07-23T06:51:25;95719.50;;;22.98;44.20
7754;BME280;3921;42.266;23.122;2022-07-23T06:53:52;96011.25;;;24.93;44.97
7754;BME280;3921;42.266;23.122;2022-07-23T06:56:20;95654.88;;;22.75;44.26
7754;BME280;3921;42.266;23.122;2022-07-23T06:58:47;95751.28;;;23.44;44.76
7754;BME280;3921;42.266;23.122;2022-07-23T07:01:14;95771.47;;;23.50;44.45
7754;BME280;3921;42.266;23.122;2022-07-23T07:03:41;95944.38;;;24.63;44.79
7754;BME280;3921;42.266;23.122;2022-07-23T07:06:08;95610.91;;;22.67;45.43
7754;BME280;3921;42.266;23.122;2022-07-23T07:08:36;95816.03;;;23.98;45.36
7754;BME280;3921;42.266;23.122;2022-07-23T07:11:03;95672.69;;;23.12;45.42
7754;BME280;3921;42.266;23.122;2022-07-23T07:13:32;95737.81;;;23.56;45.20
7754;BME280;3921;42.266;23.122;2022-07-23T07:15:59;95824.56;;;24.15;45.21
7754;BME280;3921;42.266;23.122;2022-07-23T07:18:26;95504.16;;;22.19;45.14
7754;BME280;3921;42.266;23.122;2022-07-23T07:21:04;95577.44;;;22.70;44.99
7754;BME280;3921;42.266;23.122;2022-07-23T07:23:31;95576.97;;;22.79;44.47
7754;BME280;3921;42.266;23.122;2022-07-23T07:25:58;95599.88;;;22.83;44.15
7754;BME280;3921;42.266;23.122;2022-07-23T07:28:25;95585.69;;;22.93;43.62
7754;BME280;3921;42.266;23.122;2022-07-23T07:30:54;95569.13;;;22.83;43.46
7754;BME280;3921;42.266;23.122;2022-07-23T07:33:21;95599.25;;;23.11;43.40
7754;BME280;3921;42.266;23.122;2022-07-23T07:35:48;95584.88;;;23.08;43.43
7754;BME280;3921;42.266;23.122;2022-07-23T07:38:15;95748.94;;;24.20;43.09
7754;BME280;3921;42.266;23.122;2022-07-23T07:40:46;95487.25;;;22.65;42.27
7754;BME280;3921;42.266;23.122;2022-07-23T07:43:27;95597.66;;;23.40;42.48
7754;BME280;3921;42.266;23.122;2022-07-23T07:45:56;95590.84;;;23.24;42.28
7754;BME280;3921;42.266;23.122;2022-07-23T07:48:23;95544.44;;;23.13;41.99
7754;BME280;3921;42.266;23.122;2022-07-23T07:50:50;95738.47;;;24.23;41.29
7754;BME280;3921;42.266;23.122;2022-07-23T07:53:17;95591.00;;;23.37;40.62
7754;BME280;3921;42.266;23.122;2022-07-23T07:55:44;95811.41;;;24.97;39.98
7754;BME280;3921;42.266;23.122;2022-07-23T07:58:11;95537.81;;;23.25;39.64
7754;BME280;3921;42.266;23.122;2022-07-23T08:00:38;95799.63;;;25.08;37.79
7754;BME280;3921;42.266;23.122;2022-07-23T08:03:12;95500.94;;;23.27;37.56
7754;BME280;3921;42.266;23.122;2022-07-23T08:05:41;95778.34;;;25.06;37.04
7754;BME280;3921;42.266;23.122;2022-07-23T08:08:08;95687.91;;;24.55;36.79
7754;BME280;3921;42.266;23.122;2022-07-23T08:10:40;95584.38;;;23.95;36.77
7754;BME280;3921;42.266;23.122;2022-07-23T08:13:07;95928.19;;;26.11;36.67
7754;BME280;3921;42.266;23.122;2022-07-23T08:15:34;95697.56;;;24.66;36.34
7754;BME280;3921;42.266;23.122;2022-07-23T08:18:01;95941.50;;;26.32;36.59
7754;BME280;3921;42.266;23.122;2022-07-23T08:20:30;95570.94;;;24.05;36.76
7754;BME280;3921;42.266;23.122;2022-07-23T08:22:59;95769.53;;;25.39;36.69
7754;BME280;3921;42.266;23.122;2022-07-23T08:25:27;95531.56;;;23.91;37.16
7754;BME280;3921;42.266;23.122;2022-07-23T08:27:55;95548.28;;;24.12;36.96
7754;BME280;3921;42.266;23.122;2022-07-23T08:30:23;95926.72;;;26.50;35.99
7754;BME280;3921;42.266;23.122;2022-07-23T08:32:53;95894.69;;;26.40;35.40
7754;BME280;3921;42.266;23.122;2022-07-23T08:35:25;95622.59;;;24.74;34.76
7754;BME280;3921;42.266;23.122;2022-07-23T08:37:55;95601.28;;;24.57;34.22
7754;BME280;3921;42.266;23.122;2022-07-23T08:40:23;95563.28;;;24.48;34.77
7754;BME280;3921;42.266;23.122;2022-07-23T08:42:52;95540.53;;;24.42;34.15
7754;BME280;3921;42.266;23.122;2022-07-23T08:45:21;95904.00;;;26.69;33.74
7754;BME280;3921;42.266;23.122;2022-07-23T08:47:53;95620.59;;;25.07;33.84
7754;BME280;3921;42.266;23.122;2022-07-23T08:50:22;95524.69;;;24.64;34.34
7754;BME280;3921;42.266;23.122;2022-07-23T08:52:50;95803.13;;;26.34;34.95
7754;BME280;3921;42.266;23.122;2022-07-23T08:55:21;95658.31;;;25.62;34.55
7754;BME280;3921;42.266;23.122;2022-07-23T08:57:49;95663.47;;;25.77;34.92
7754;BME280;3921;42.266;23.122;2022-07-23T09:00:17;95546.38;;;25.01;34.74
7754;BME280;3921;42.266;23.122;2022-07-23T09:02:45;95905.97;;;27.33;35.17
7754;BME280;3921;42.266;23.122;2022-07-23T09:05:14;95509.56;;;25.01;35.19
7754;BME280;3921;42.266;23.122;2022-07-23T09:08:06;95889.25;;;27.38;34.93
7754;BME280;3921;42.266;23.122;2022-07-23T09:10:51;95599.56;;;25.69;35.81
7754;BME280;3921;42.266;23.122;2022-07-23T09:13:28;95809.97;;;27.02;36.00
7754;BME280;3921;42.266;23.122;2022-07-23T09:15:57;95745.97;;;26.69;35.49
7754;BME280;3921;42.266;23.122;2022-07-23T09:18:32;95728.19;;;26.52;36.06
7754;BME280;3921;42.266;23.122;2022-07-23T09:21:14;95500.50;;;25.22;36.04
7754;BME280;3921;42.266;23.122;2022-07-23T09:23:43;95527.69;;;25.53;35.16
7754;BME280;3921;42.266;23.122;2022-07-23T09:26:27;95495.63;;;25.32;34.65
7754;BME280;3921;42.266;23.122;2022-07-23T09:29:03;95541.75;;;25.75;35.07
7754;BME280;3921;42.266;23.122;2022-07-23T09:31:33;95713.38;;;26.93;34.36
7754;BME280;3921;42.266;23.122;2022-07-23T09:34:08;95808.78;;;27.71;34.49
7754;BME280;3921;42.266;23.122;2022-07-23T09:36:36;95529.56;;;26.04;34.09
7754;BME280;3921;42.266;23.122;2022-07-23T09:39:04;95579.16;;;26.45;34.50
7754;BME280;3921;42.266;23.122;2022-07-23T09:41:41;95535.84;;;26.25;34.51
7754;BME280;3921;42.266;23.122;2022-07-23T09:44:12;95741.81;;;27.81;34.28
7754;BME280;3921;42.266;23.122;2022-07-23T09:46:41;95658.00;;;27.24;34.65
7754;BME280;3921;42.266;23.122;2022-07-23T09:49:15;95474.53;;;26.30;34.16
7754;BME280;3921;42.266;23.122;2022-07-23T09:51:48;95483.09;;;26.56;33.97
7754;BME280;3921;42.266;23.122;2022-07-23T09:54:27;95643.13;;;27.65;34.03
7754;BME280;3921;42.266;23.122;2022-07-23T09:56:58;95486.72;;;26.90;33.53
7754;BME280;3921;42.266;23.122;2022-07-23T09:59:27;95474.91;;;26.99;33.93
7754;BME280;3921;42.266;23.122;2022-07-23T10:01:55;95473.97;;;27.13;33.53
7754;BME280;3921;42.266;23.122;2022-07-23T10:04:25;95507.19;;;27.52;33.40
7754;BME280;3921;42.266;23.122;2022-07-23T10:06:54;95474.91;;;27.47;33.25
7754;BME280;3921;42.266;23.122;2022-07-23T10:09:25;95561.06;;;28.05;33.66
7754;BME280;3921;42.266;23.122;2022-07-23T10:11:57;95482.91;;;27.79;33.77
7754;BME280;3921;42.266;23.122;2022-07-23T10:14:28;95701.44;;;29.09;33.40
7754;BME280;3921;42.266;23.122;2022-07-23T10:16:59;95576.28;;;28.54;33.67
7754;BME280;3921;42.266;23.122;2022-07-23T10:19:27;95455.72;;;27.97;34.12
7754;BME280;3921;42.266;23.122;2022-07-23T10:21:57;95678.84;;;29.45;33.00
7754;BME280;3921;42.266;23.122;2022-07-23T10:24:35;95489.84;;;28.36;32.14
7754;BME280;3921;42.266;23.122;2022-07-23T10:27:30;95417.72;;;28.22;31.18
7754;BME280;3921;42.266;23.122;2022-07-23T10:30:03;95529.53;;;29.02;30.63
7754;BME280;3921;42.266;23.122;2022-07-23T10:32:39;95429.91;;;28.53;30.03
7754;BME280;3921;42.266;23.122;2022-07-23T10:35:13;95448.75;;;28.88;30.29
7754;BME280;3921;42.266;23.122;2022-07-23T10:37:49;95815.06;;;31.32;30.02
7754;BME280;3921;42.266;23.122;2022-07-23T10:40:19;95803.88;;;31.41;29.28
7754;BME280;3921;42.266;23.122;2022-07-23T10:43:00;95740.34;;;30.94;29.23
7754;BME280;3921;42.266;23.122;2022-07-23T10:45:30;95569.16;;;30.10;28.96
7754;BME280;3921;42.266;23.122;2022-07-23T10:48:12;95438.91;;;29.57;28.88
7754;BME280;3921;42.266;23.122;2022-07-23T10:50:41;95440.16;;;29.62;28.70
7754;BME280;3921;42.266;23.122;2022-07-23T10:53:14;95656.72;;;31.11;29.31
7754;BME280;3921;42.266;23.122;2022-07-23T10:55:57;95678.44;;;31.31;30.10
7754;BME280;3921;42.266;23.122;2022-07-23T10:58:50;95441.72;;;29.96;30.53
7754;BME280;3921;42.266;23.122;2022-07-23T11:01:39;95426.19;;;29.96;30.15
7754;BME280;3921;42.266;23.122;2022-07-23T11:04:07;95379.00;;;29.92;29.60
7754;BME280;3921;42.266;23.122;2022-07-23T11:07:09;95759.66;;;32.53;28.31
7754;BME280;3921;42.266;23.122;2022-07-23T11:09:42;95386.28;;;30.29;27.51
7754;BME280;3921;42.266;23.122;2022-07-23T11:12:33;95753.75;;;32.70;28.62
7754;BME280;3921;42.266;23.122;2022-07-23T11:15:05;95622.50;;;31.96;29.18
7754;BME280;3921;42.266;23.122;2022-07-23T11:17:34;95738.16;;;32.70;29.96
7754;BME280;3921;42.266;23.122;2022-07-23T11:20:19;95562.72;;;31.67;28.17
7754;BME280;3921;42.266;23.122;2022-07-23T11:22:49;95544.94;;;31.63;27.73
7754;BME280;3921;42.266;23.122;2022-07-23T11:25:33;95628.41;;;32.18;27.68
7754;BME280;3921;42.266;23.122;2022-07-23T11:28:17;95517.31;;;31.52;28.31
7754;BME280;3921;42.266;23.122;2022-07-23T11:30:48;95662.75;;;32.41;27.74
7754;BME280;3921;42.266;23.122;2022-07-23T11:33:21;95541.53;;;31.82;26.61
7754;BME280;3921;42.266;23.122;2022-07-23T11:36:01;95578.72;;;32.21;26.03
7754;BME280;3921;42.266;23.122;2022-07-23T11:38:31;95348.84;;;30.81;25.76
7754;BME280;3921;42.266;23.122;2022-07-23T11:40:58;95473.03;;;31.73;26.27
7754;BME280;3921;42.266;23.122;2022-07-23T11:43:25;95662.50;;;33.00;26.44
7754;BME280;3921;42.266;23.122;2022-07-23T11:45:57;95678.03;;;33.20;24.77
7754;BME280;3921;42.266;23.122;2022-07-23T11:48:25;95706.16;;;33.53;23.58
7754;BME280;3921;42.266;23.122;2022-07-23T11:50:54;95379.69;;;31.62;22.83
7754;BME280;3921;42.266;23.122;2022-07-23T11:53:30;95506.22;;;32.65;22.57
7754;BME280;3921;42.266;23.122;2022-07-23T11:56:04;95434.75;;;32.22;23.28
7754;BME280;3921;42.266;23.122;2022-07-23T11:58:31;95478.69;;;32.62;24.02
7754;BME280;3921;42.266;23.122;2022-07-23T12:01:00;95410.84;;;32.18;23.35
7754;BME280;3921;42.266;23.122;2022-07-23T12:03:27;95452.06;;;32.50;22.93
7754;BME280;3921;42.266;23.122;2022-07-23T12:05:57;95572.06;;;33.30;22.71
7754;BME280;3921;42.266;23.122;2022-07-23T12:08:24;95652.66;;;33.77;22.26
7754;BME280;3921;42.266;23.122;2022-07-23T12:10:51;95666.66;;;34.03;23.40
7754;BME280;3921;42.266;23.122;2022-07-23T12:13:20;95677.75;;;34.23;22.28
7754;BME280;3921;42.266;23.122;2022-07-23T12:15:58;95621.97;;;33.98;20.73
7754;BME280;3921;42.266;23.122;2022-07-23T12:18:34;95353.59;;;32.28;22.25
7754;BME280;3921;42.266;23.122;2022-07-23T12:21:05;95512.63;;;33.43;23.11
7754;BME280;3921;42.266;23.122;2022-07-23T12:23:32;95323.72;;;32.14;23.82
7754;BME280;3921;42.266;23.122;2022-07-23T12:26:03;95546.06;;;33.66;24.47
7754;BME280;3921;42.266;23.122;2022-07-23T12:28:33;95323.91;;;32.31;23.85
7754;BME280;3921;42.266;23.122;2022-07-23T12:31:03;95318.81;;;32.39;23.20
7754;BME280;3921;42.266;23.122;2022-07-23T12:33:34;95548.81;;;33.82;21.30
7754;BME280;3921;42.266;23.122;2022-07-23T12:36:03;95321.72;;;32.54;21.96
7754;BME280;3921;42.266;23.122;2022-07-23T12:38:37;95426.53;;;33.27;20.44
7754;BME280;3921;42.266;23.122;2022-07-23T12:41:05;95437.59;;;33.65;20.15
7754;BME280;3921;42.266;23.122;2022-07-23T12:43:33;95380.38;;;33.37;19.92
7754;BME280;3921;42.266;23.122;2022-07-23T12:46:04;95461.81;;;33.83;20.86
7754;BME280;3921;42.266;23.122;2022-07-23T12:48:34;95646.63;;;35.18;21.63
7754;BME280;3921;42.266;23.122;2022-07-23T12:51:13;95380.47;;;33.45;21.17
7754;BME280;3921;42.266;23.122;2022-07-23T12:53:43;95493.44;;;34.24;21.86
7754;BME280;3921;42.266;23.122;2022-07-23T12:56:11;95544.81;;;34.57;21.79
7754;BME280;3921;42.266;23.122;2022-07-23T12:58:41;95338.47;;;33.22;22.07
7754;BME280;3921;42.266;23.122;2022-07-23T13:01:09;95434.03;;;33.92;22.18
7754;BME280;3921;42.266;23.122;2022-07-23T13:03:40;95416.34;;;33.77;21.22
7754;BME280;3921;42.266;23.122;2022-07-23T13:06:09;95345.56;;;33.38;20.39
7754;BME280;3921;42.266;23.122;2022-07-23T13:08:39;95293.22;;;33.23;20.99
7754;BME280;3921;42.266;23.122;2022-07-23T13:11:06;95310.75;;;33.39;20.88
7754;BME280;3921;42.266;23.122;2022-07-23T13:13:34;95519.59;;;34.66;20.57
7754;BME280;3921;42.266;23.122;2022-07-23T13:16:02;95243.44;;;33.00;20.91
7754;BME280;3921;42.266;23.122;2022-07-23T13:18:30;95298.63;;;33.30;20.82
7754;BME280;3921;42.266;23.122;2022-07-23T13:21:00;95337.06;;;33.54;20.93
7754;BME280;3921;42.266;23.122;2022-07-23T13:23:27;95542.63;;;34.79;21.26
7754;BME280;3921;42.266;23.122;2022-07-23T13:25:54;95423.41;;;34.11;22.15
7754;BME280;3921;42.266;23.122;2022-07-23T13:28:22;95502.78;;;34.69;21.24
7754;BME280;3921;42.266;23.122;2022-07-23T13:30:50;95277.06;;;33.20;21.38
7754;BME280;3921;42.266;23.122;2022-07-23T13:33:19;95347.91;;;33.67;21.09
7754;BME280;3921;42.266;23.122;2022-07-23T13:35:46;95490.00;;;34.57;20.10
7754;BME280;3921;42.266;23.122;2022-07-23T13:38:15;95302.56;;;33.34;20.95